Terminal Aerodrome Forecast
Issued by NWS Grand Junction, CO

Home | Current Version | Previous Version | Text Only | Print | Product List | Glossary On
Versions: 1 2 3 4 5 6 7 8 9 10 11 12 13
000
FTUS45 KGJT 291127
TAFGJT
TAF
KGJT 291127Z 2912/3012 VRB04KT P6SM VCSH FEW045 OVC100
     FM291600 02005KT P6SM VCSH SCT050 BKN100
     FM291800 34010KT P6SM SCT060 BKN120
     FM300000 36015G20KT P6SM SCT200
     FM300300 01010KT P6SM FEW250=

USA.gov is the U.S. government's official web portal to all federal, state and local government web resources and services.